Time;durP1;ratioP1;P1;durP2;ratioP2;P2;SDS_P1;SDS_P2;PMS_P1;PMS_P2;Temp;Humidity;BMP_temperature;BMP_pressure;BME280_temperature;BME280_humidity;BME280_pressure;Samples;Min_cycle;Max_cycle;Signal;HPM_P1;HPM_P2
2021/11/14 00:02:13;;;;;;;25.40;12.25;;;12.00;99.90;;;;;;4887722;29;20105;-81
2021/11/14 00:04:42;;;;;;;19.67;10.32;;;12.00;99.90;;;;;;4904339;29;20037;-80
2021/11/14 00:07:08;;;;;;;23.05;10.95;;;12.00;99.90;;;;;;4901685;29;20040;-80
2021/11/14 00:09:36;;;;;;;22.10;10.63;;;12.00;99.90;;;;;;4904307;29;20017;-80
2021/11/14 00:12:02;;;;;;;23.35;11.50;;;12.00;99.90;;;;;;4887234;29;20108;-81
2021/11/14 00:14:28;;;;;;;19.67;11.02;;;11.90;99.90;;;;;;4904008;29;20044;-80
2021/11/14 00:16:54;;;;;;;23.25;10.95;;;11.90;99.90;;;;;;4904682;29;20017;-79
2021/11/14 00:19:20;;;;;;;17.95;10.57;;;12.00;99.90;;;;;;4889102;29;20040;-80
2021/11/14 00:21:46;;;;;;;22.92;11.60;;;12.00;99.90;;;;;;4888077;29;20025;-80
2021/11/14 00:24:14;;;;;;;22.73;11.18;;;12.00;99.90;;;;;;4889233;29;20044;-81
2021/11/14 00:26:40;;;;;;;24.98;11.02;;;11.90;99.90;;;;;;4905606;29;20013;-80
2021/11/14 00:29:08;;;;;;;19.17;10.90;;;11.90;99.90;;;;;;4905937;29;20076;-81
2021/11/14 00:31:33;;;;;;;24.17;11.97;;;11.90;99.90;;;;;;4903089;29;20047;-81
2021/11/14 00:34:01;;;;;;;21.55;12.00;;;11.90;99.90;;;;;;4890034;29;20305;-82
2021/11/14 00:36:28;;;;;;;18.55;10.65;;;11.90;99.90;;;;;;4888624;29;20009;-80
2021/11/14 00:38:57;;;;;;;20.75;11.38;;;11.90;99.90;;;;;;4905441;29;20034;-80
2021/11/14 00:41:24;;;;;;;24.02;11.55;;;12.00;99.90;;;;;;4902843;29;20074;-80
2021/11/14 00:43:51;;;;;;;21.73;11.43;;;11.80;99.90;;;;;;4894446;29;20021;-80
2021/11/14 00:46:18;;;;;;;20.80;10.85;;;11.80;99.90;;;;;;4908001;29;20320;-77
2021/11/14 00:48:47;;;;;;;22.83;11.43;;;11.70;99.90;;;;;;4903337;29;20081;-78
2021/11/14 00:53:48;;;;;;;24.17;10.70;;;11.70;99.90;;;;;;5157073;23;20407;-83
2021/11/14 00:56:14;;;;;;;20.58;11.13;;;11.70;99.90;;;;;;4858506;29;20029;-82
2021/11/14 00:58:40;;;;;;;32.15;12.45;;;11.70;99.90;;;;;;4862623;29;20033;-82
2021/11/14 01:01:05;;;;;;;23.42;12.25;;;11.60;99.90;;;;;;4849468;29;20038;-83
2021/11/14 01:03:37;;;;;;;23.95;12.40;;;11.60;99.90;;;;;;4862811;29;20085;-82
2021/11/14 01:06:04;;;;;;;29.52;11.98;;;11.60;99.90;;;;;;4846825;29;20505;-83
2021/11/14 01:08:30;;;;;;;25.65;12.63;;;11.60;99.90;;;;;;4857126;29;20025;-83
2021/11/14 01:10:58;;;;;;;23.02;12.25;;;11.60;99.90;;;;;;4845153;29;20065;-83
2021/11/14 01:13:25;;;;;;;23.45;12.07;;;11.60;99.90;;;;;;4843495;29;20071;-83
2021/11/14 01:15:53;;;;;;;24.23;11.07;;;11.50;99.90;;;;;;4846048;29;20029;-84
2021/11/14 01:18:20;;;;;;;27.13;11.45;;;11.50;99.90;;;;;;4845849;29;20033;-83
2021/11/14 01:20:49;;;;;;;24.80;11.18;;;11.50;99.90;;;;;;4862659;29;20055;-84
2021/11/14 01:23:16;;;;;;;24.90;10.63;;;11.50;99.90;;;;;;4845718;29;20494;-82
2021/11/14 01:25:44;;;;;;;22.95;10.18;;;11.50;99.90;;;;;;4845485;29;20029;-82
2021/11/14 01:28:10;;;;;;;;;;;11.50;99.90;;;;;;4846676;29;20112;-83
2021/11/14 01:30:43;;;;;;;27.23;11.35;;;11.50;99.90;;;;;;4859532;29;19943;-82
2021/11/14 01:33:10;;;;;;;20.45;10.63;;;11.50;99.90;;;;;;4845575;29;20137;-82
2021/11/14 01:35:37;;;;;;;24.40;11.40;;;11.50;99.90;;;;;;4846131;29;20033;-82
2021/11/14 01:38:05;;;;;;;20.08;11.00;;;11.50;99.90;;;;;;4862175;29;20173;-82
2021/11/14 01:40:50;;;;;;;;;;;11.60;99.90;;;;;;4843608;29;20038;-82
2021/11/14 01:43:20;;;;;;;23.55;11.43;;;11.60;99.90;;;;;;4845159;29;20309;-81
2021/11/14 01:45:46;;;;;;;21.40;11.10;;;11.60;99.90;;;;;;4860502;29;20398;-81
2021/11/14 01:48:12;;;;;;;18.80;10.90;;;11.60;99.90;;;;;;4844753;29;20041;-81
2021/11/14 01:50:39;;;;;;;20.38;10.57;;;11.60;99.90;;;;;;4845228;29;20501;-80
2021/11/14 01:53:07;;;;;;;19.67;9.63;;;11.60;99.90;;;;;;4841882;29;20066;-81
2021/11/14 01:55:33;;;;;;;21.08;10.85;;;11.70;99.90;;;;;;4842353;29;20068;-81
2021/11/14 01:58:00;;;;;;;18.90;10.40;;;11.70;99.90;;;;;;4845464;29;20033;-80
2021/11/14 02:00:41;;;;;;;19.38;10.23;;;11.70;99.90;;;;;;4845125;29;20116;-81
2021/11/14 02:03:08;;;;;;;22.70;11.85;;;11.60;99.90;;;;;;4845414;29;20428;-81
2021/11/14 02:05:34;;;;;;;22.13;11.07;;;11.60;99.90;;;;;;4844913;29;20128;-81
2021/11/14 02:08:04;;;;;;;24.40;11.82;;;11.60;99.90;;;;;;4842429;29;20040;-81
2021/11/14 02:10:32;;;;;;;24.50;11.07;;;11.60;99.90;;;;;;4841637;29;20098;-81
2021/11/14 02:12:58;;;;;;;25.80;10.23;;;11.60;99.90;;;;;;4861464;29;20029;-80
2021/11/14 02:15:24;;;;;;;24.27;11.50;;;11.60;99.90;;;;;;4844846;29;20045;-82
2021/11/14 02:17:51;;;;;;;18.48;10.07;;;11.60;99.90;;;;;;4845242;29;20072;-83
2021/11/14 02:20:19;;;;;;;23.27;11.65;;;11.60;99.90;;;;;;4861309;29;20386;-81
2021/11/14 02:22:45;;;;;;;22.00;10.07;;;11.50;99.90;;;;;;4861196;29;20450;-81
2021/11/14 02:25:15;;;;;;;24.80;10.60;;;11.50;99.90;;;;;;4861450;29;20168;-81
2021/11/14 02:27:44;;;;;;;23.23;10.90;;;11.50;99.90;;;;;;4842670;29;20132;-82
2021/11/14 02:30:13;;;;;;;19.73;10.68;;;11.50;99.90;;;;;;4845004;29;20068;-81
2021/11/14 02:32:40;;;;;;;21.25;10.52;;;11.50;99.90;;;;;;4804586;29;20415;-82
2021/11/14 02:35:08;;;;;;;13.83;7.57;;;11.50;99.90;;;;;;4821516;29;20082;-81
2021/11/14 02:37:35;;;;;;;;;;;11.50;99.90;;;;;;4818687;29;20690;-82
2021/11/14 02:40:02;;;;;;;24.48;11.18;;;11.50;99.90;;;;;;4807708;29;20019;-81
2021/11/14 02:42:28;;;;;;;20.50;10.65;;;11.50;99.90;;;;;;4811788;29;20050;-81
2021/11/14 02:44:54;;;;;;;21.42;10.52;;;11.50;99.90;;;;;;4804764;29;20030;-81
2021/11/14 02:47:20;;;;;;;17.42;9.70;;;11.50;99.90;;;;;;4805411;29;20063;-82
2021/11/14 02:49:45;;;;;;;23.42;10.25;;;11.50;99.90;;;;;;4806222;29;20527;-81
2021/11/14 02:52:13;;;;;;;24.73;11.13;;;11.50;99.90;;;;;;4814304;29;20038;-81
2021/11/14 02:54:39;;;;;;;24.30;10.77;;;11.50;99.90;;;;;;4796047;29;20108;-82
2021/11/14 02:57:07;;;;;;;20.50;10.65;;;11.50;99.90;;;;;;4822602;29;20136;-81
2021/11/14 02:59:34;;;;;;;22.10;10.38;;;11.50;99.90;;;;;;4809811;29;20388;-82
2021/11/14 03:02:01;;;;;;;21.67;10.43;;;11.50;99.90;;;;;;4812043;29;20043;-81
2021/11/14 03:04:30;;;;;;;29.95;10.93;;;11.50;99.90;;;;;;4856405;29;20049;-81
2021/11/14 03:06:58;;;;;;;22.70;10.35;;;11.40;99.90;;;;;;4861766;29;20030;-82
2021/11/14 03:09:25;;;;;;;19.33;10.50;;;11.40;99.90;;;;;;4858734;29;20052;-83
2021/11/14 03:11:53;;;;;;;24.30;10.00;;;11.40;99.90;;;;;;4847905;29;20033;-82
2021/11/14 03:14:22;;;;;;;23.55;11.77;;;11.40;99.90;;;;;;4861051;29;20129;-82
2021/11/14 03:16:48;;;;;;;20.13;10.18;;;11.40;99.90;;;;;;4864527;29;20490;-81
2021/11/14 03:19:15;;;;;;;22.02;10.52;;;11.40;99.90;;;;;;4862727;29;20551;-81
2021/11/14 03:21:41;;;;;;;18.40;9.93;;;11.40;99.90;;;;;;4847481;29;20044;-82
2021/11/14 03:24:08;;;;;;;20.08;10.15;;;11.40;99.90;;;;;;4848245;29;20022;-81
2021/11/14 03:26:34;;;;;;;23.95;10.23;;;11.40;99.90;;;;;;4845056;29;20561;-82
2021/11/14 03:29:00;;;;;;;18.63;9.88;;;11.50;99.90;;;;;;4847726;29;20105;-82
2021/11/14 03:31:27;;;;;;;20.48;9.07;;;11.40;99.90;;;;;;4847595;29;20512;-81
2021/11/14 03:33:55;;;;;;;20.35;10.73;;;11.40;99.90;;;;;;4847970;29;20057;-82
2021/11/14 03:36:21;;;;;;;21.27;9.45;;;11.40;99.90;;;;;;4847714;29;20482;-81
2021/11/14 03:38:55;;;;;;;23.05;10.73;;;11.40;99.90;;;;;;4861188;29;20033;-82
2021/11/14 03:41:25;;;;;;;21.38;10.45;;;11.40;99.90;;;;;;4864075;29;20030;-83
2021/11/14 03:43:52;;;;;;;21.77;10.73;;;11.40;99.90;;;;;;4847878;29;20491;-81
2021/11/14 03:46:19;;;;;;;22.02;10.55;;;11.40;99.90;;;;;;4847594;29;20478;-82
2021/11/14 03:48:47;;;;;;;19.02;10.02;;;11.40;99.90;;;;;;4861625;29;20045;-82
2021/11/14 03:51:13;;;;;;;;;;;11.40;99.90;;;;;;4865435;29;20026;-82
2021/11/14 03:53:39;;;;;;;19.70;10.18;;;11.30;99.90;;;;;;4864891;29;19920;-83
2021/11/14 03:56:06;;;;;;;24.55;9.30;;;11.40;99.90;;;;;;4864436;29;20062;-82
2021/11/14 03:58:34;;;;;;;22.20;10.15;;;11.40;99.90;;;;;;4848107;29;20033;-83
2021/11/14 04:01:04;;;;;;;24.35;9.95;;;11.40;99.90;;;;;;4847625;29;20061;-83
2021/11/14 04:03:31;;;;;;;21.85;10.38;;;11.30;99.90;;;;;;4851547;29;20034;-81
2021/11/14 04:05:57;;;;;;;23.23;11.52;;;11.40;99.90;;;;;;4864071;29;20100;-81
2021/11/14 04:08:25;;;;;;;26.70;10.52;;;11.30;99.90;;;;;;4863682;29;20083;-83
2021/11/14 04:10:54;;;;;;;19.58;10.48;;;11.30;99.90;;;;;;4863817;29;20025;-82
2021/11/14 04:13:21;;;;;;;24.63;12.00;;;11.30;99.90;;;;;;4860008;29;20585;-82
2021/11/14 04:15:47;;;;;;;24.53;10.93;;;11.30;99.90;;;;;;4848170;29;20029;-83
2021/11/14 04:18:13;;;;;;;20.63;10.52;;;11.30;99.90;;;;;;4847464;29;20558;-84
2021/11/14 04:20:41;;;;;;;22.02;10.43;;;11.30;99.90;;;;;;4864675;29;20105;-84
2021/11/14 04:23:09;;;;;;;;;;;11.30;99.90;;;;;;4864279;29;20065;-84
2021/11/14 04:25:35;;;;;;;20.35;9.60;;;11.30;99.90;;;;;;4847991;29;19912;-84
2021/11/14 04:28:01;;;;;;;24.15;10.95;;;11.30;99.90;;;;;;4845332;29;20048;-83
2021/11/14 04:30:29;;;;;;;21.77;10.77;;;11.20;99.90;;;;;;4864033;29;20059;-84
2021/11/14 04:32:55;;;;;;;30.00;11.48;;;11.20;99.90;;;;;;4863363;29;20064;-82
2021/11/14 04:35:22;;;;;;;34.55;11.93;;;11.20;99.90;;;;;;4864179;29;20086;-81
2021/11/14 04:37:49;;;;;;;22.35;10.68;;;11.20;99.90;;;;;;4846516;29;20053;-83
2021/11/14 04:40:16;;;;;;;24.40;10.57;;;11.20;99.90;;;;;;4864171;29;20037;-82
2021/11/14 04:42:42;;;;;;;25.35;10.77;;;11.20;99.90;;;;;;4863095;29;20123;-84
2021/11/14 04:45:09;;;;;;;24.25;11.07;;;11.20;99.90;;;;;;4860531;29;20057;-82
2021/11/14 04:47:36;;;;;;;26.30;11.32;;;11.00;99.90;;;;;;4860215;29;20041;-82
2021/11/14 04:50:07;;;;;;;23.83;11.90;;;11.00;99.90;;;;;;4847098;29;20040;-82
2021/11/14 04:52:33;;;;;;;26.30;10.65;;;11.00;99.90;;;;;;4862306;29;20129;-82
2021/11/14 04:55:00;;;;;;;25.17;10.88;;;10.90;99.90;;;;;;4860972;29;20049;-82
2021/11/14 04:57:29;;;;;;;24.98;11.55;;;10.90;99.90;;;;;;4847266;29;20129;-82
2021/11/14 04:59:56;;;;;;;29.88;11.85;;;11.00;99.90;;;;;;4827620;29;20042;-82
2021/11/14 05:02:23;;;;;;;22.02;10.55;;;11.00;99.90;;;;;;4836254;29;20049;-82
2021/11/14 05:04:51;;;;;;;24.73;11.67;;;11.00;99.90;;;;;;4860456;29;20506;-81
2021/11/14 05:07:18;;;;;;;23.60;11.40;;;11.00;99.90;;;;;;4842032;29;20619;-82
2021/11/14 05:09:44;;;;;;;26.05;10.88;;;11.00;99.90;;;;;;4846587;29;20042;-82
2021/11/14 05:12:12;;;;;;;26.05;11.95;;;11.00;99.90;;;;;;4832844;29;20058;-82
2021/11/14 05:14:38;;;;;;;29.10;11.02;;;11.00;99.90;;;;;;4836632;29;20049;-82
2021/11/14 05:17:06;;;;;;;25.08;11.52;;;11.00;99.90;;;;;;4824289;29;20047;-82
2021/11/14 05:19:33;;;;;;;23.95;11.02;;;11.10;99.90;;;;;;4832307;29;20038;-82
2021/11/14 05:21:59;;;;;;;28.80;11.90;;;11.00;99.90;;;;;;4823631;29;20198;-83
2021/11/14 05:24:25;;;;;;;25.40;12.43;;;11.10;99.90;;;;;;4836596;29;20113;-82
2021/11/14 05:26:54;;;;;;;23.95;12.20;;;11.10;99.90;;;;;;4828235;29;20057;-83
2021/11/14 05:29:23;;;;;;;27.15;11.40;;;11.10;99.90;;;;;;4826555;29;20053;-82
2021/11/14 05:31:50;;;;;;;31.55;12.38;;;11.10;99.90;;;;;;4826452;29;20110;-82
2021/11/14 05:34:17;;;;;;;27.90;11.63;;;11.00;99.90;;;;;;4826455;29;20079;-83
2021/11/14 05:36:44;;;;;;;27.08;12.20;;;11.00;99.90;;;;;;4826816;29;20074;-83
2021/11/14 05:39:11;;;;;;;34.03;12.60;;;11.00;99.90;;;;;;4841278;29;20030;-82
2021/11/14 05:41:37;;;;;;;33.70;13.48;;;10.90;99.90;;;;;;4823637;29;20057;-83
2021/11/14 05:44:03;;;;;;;32.63;13.25;;;11.00;99.90;;;;;;4845931;29;20037;-82
2021/11/14 05:46:28;;;;;;;25.40;12.45;;;11.00;99.90;;;;;;4861445;29;20095;-82
2021/11/14 05:48:55;;;;;;;31.35;12.98;;;11.00;99.90;;;;;;4844960;29;20537;-83
2021/11/14 05:51:24;;;;;;;30.23;13.27;;;10.90;99.90;;;;;;4861899;29;20085;-83
2021/11/14 05:53:50;;;;;;;25.55;12.13;;;10.90;99.90;;;;;;4862059;29;20058;-82
2021/11/14 05:56:15;;;;;;;28.38;12.90;;;10.90;99.90;;;;;;4859182;29;20509;-82
2021/11/14 05:58:53;;;;;;;35.25;13.80;;;10.90;99.90;;;;;;4837977;29;20048;-81
2021/11/14 06:01:44;;;;;;;31.88;14.27;;;10.90;99.90;;;;;;4844866;29;20029;-81
2021/11/14 06:04:26;;;;;;;31.10;12.60;;;10.90;99.90;;;;;;4844088;29;20041;-82
2021/11/14 06:06:52;;;;;;;;;;;11.00;99.90;;;;;;4849508;29;20395;-82
2021/11/14 06:09:18;;;;;;;28.08;13.43;;;11.00;99.90;;;;;;4861689;29;19912;-83
2021/11/14 06:11:43;;;;;;;30.15;14.40;;;10.90;99.90;;;;;;4845477;29;20085;-82
2021/11/14 06:14:10;;;;;;;37.67;14.75;;;10.90;99.90;;;;;;4845647;29;20025;-82
2021/11/14 06:16:36;;;;;;;35.80;14.82;;;10.90;99.90;;;;;;4845269;29;20029;-82
2021/11/14 06:19:01;;;;;;;35.00;14.82;;;10.80;99.90;;;;;;4861627;29;20033;-83
2021/11/14 06:21:27;;;;;;;42.50;15.63;;;10.80;99.90;;;;;;4844163;29;20017;-82
2021/11/14 06:23:53;;;;;;;32.97;13.63;;;10.80;99.90;;;;;;4868037;29;20457;-81
2021/11/14 06:26:19;;;;;;;39.35;16.08;;;10.80;99.90;;;;;;4860044;29;20059;-82
2021/11/14 06:28:45;;;;;;;44.40;15.70;;;10.80;99.90;;;;;;4844889;29;20041;-83
2021/11/14 06:31:11;;;;;;;41.40;17.08;;;10.80;99.90;;;;;;4842433;29;20094;-83
2021/11/14 06:33:37;;;;;;;37.40;15.57;;;10.70;99.90;;;;;;4844202;29;20026;-83
2021/11/14 06:36:03;;;;;;;40.25;15.60;;;10.60;99.90;;;;;;4861870;29;20386;-81
2021/11/14 06:38:29;;;;;;;44.30;15.90;;;10.70;99.90;;;;;;4844991;29;20502;-82
2021/11/14 06:40:55;;;;;;;42.97;16.38;;;10.70;99.90;;;;;;4850199;29;20029;-83
2021/11/14 06:43:24;;;;;;;41.33;16.17;;;10.70;99.90;;;;;;4845517;29;20573;-83
2021/11/14 06:45:50;;;;;;;39.92;16.13;;;10.60;99.90;;;;;;4844915;29;20045;-83
2021/11/14 06:48:16;;;;;;;36.80;15.18;;;10.70;99.90;;;;;;4844511;29;20038;-83
2021/11/14 06:50:42;;;;;;;42.20;15.65;;;10.70;99.90;;;;;;4861715;29;20030;-83
2021/11/14 06:53:07;;;;;;;41.03;16.48;;;10.60;99.90;;;;;;4841344;29;20109;-83
2021/11/14 06:55:34;;;;;;;40.80;15.85;;;10.60;99.90;;;;;;4844656;29;20109;-83
2021/11/14 06:58:01;;;;;;;41.60;15.85;;;10.60;99.90;;;;;;4829628;29;20038;-83
2021/11/14 07:00:31;;;;;;;45.75;16.40;;;10.60;99.90;;;;;;4843702;29;20030;-82
2021/11/14 07:02:57;;;;;;;40.22;16.75;;;10.60;99.90;;;;;;4830807;29;20419;-83
2021/11/14 07:05:22;;;;;;;36.67;15.90;;;10.60;99.90;;;;;;4842169;29;20094;-82
2021/11/14 07:07:49;;;;;;;49.83;16.73;;;10.70;99.90;;;;;;4843147;29;20113;-82
2021/11/14 07:10:17;;;;;;;41.75;16.35;;;10.70;99.90;;;;;;4841609;29;20116;-83
2021/11/14 07:12:45;;;;;;;44.35;15.40;;;10.60;99.90;;;;;;4843150;29;20034;-82
2021/11/14 07:15:15;;;;;;;37.47;14.35;;;10.70;99.90;;;;;;4844119;29;20033;-82
2021/11/14 07:17:42;;;;;;;37.35;15.13;;;10.70;99.90;;;;;;4844217;29;20030;-83
2021/11/14 07:20:10;;;;;;;48.53;16.67;;;10.70;99.90;;;;;;4842283;29;20052;-82
2021/11/14 07:22:36;;;;;;;43.58;16.02;;;10.70;99.90;;;;;;4843366;29;20029;-82
2021/11/14 07:25:03;;;;;;;42.63;16.13;;;10.80;99.90;;;;;;4841021;29;20042;-82
2021/11/14 07:27:29;;;;;;;46.35;16.98;;;10.80;99.90;;;;;;4842271;29;20117;-82
2021/11/14 07:29:56;;;;;;;46.00;15.30;;;10.80;99.90;;;;;;4842601;29;20159;-82
2021/11/14 07:32:21;;;;;;;46.97;16.07;;;10.80;99.90;;;;;;4841458;29;20514;-82
2021/11/14 07:34:49;;;;;;;42.33;15.55;;;10.90;99.90;;;;;;4842598;29;20030;-82
2021/11/14 07:37:14;;;;;;;47.70;16.80;;;10.90;99.90;;;;;;4842802;29;20034;-82
2021/11/14 07:39:40;;;;;;;41.47;15.48;;;10.90;99.90;;;;;;4842577;29;20161;-83
2021/11/14 07:42:06;;;;;;;38.05;15.65;;;10.90;99.90;;;;;;4841565;29;20440;-82
2021/11/14 07:44:32;;;;;;;43.22;15.73;;;11.00;99.90;;;;;;4843617;29;20124;-83
2021/11/14 07:46:57;;;;;;;43.92;16.45;;;10.90;99.90;;;;;;4844236;29;20030;-83
2021/11/14 07:49:23;;;;;;;48.83;16.95;;;10.90;99.90;;;;;;4846259;29;20089;-83
2021/11/14 07:51:49;;;;;;;40.53;15.98;;;10.90;99.90;;;;;;4845020;29;20026;-82
2021/11/14 07:54:15;;;;;;;45.78;17.23;;;10.80;99.90;;;;;;4845706;29;20049;-83
2021/11/14 07:56:44;;;;;;;41.00;16.90;;;10.80;99.90;;;;;;4845429;29;20022;-83
2021/11/14 07:59:09;;;;;;;42.95;17.20;;;10.90;99.90;;;;;;4846211;29;20034;-80
2021/11/14 08:01:35;;;;;;;45.85;17.25;;;10.90;99.90;;;;;;4844731;29;20029;-81
2021/11/14 08:04:02;;;;;;;48.05;16.80;;;10.80;99.90;;;;;;4845682;29;20022;-83
2021/11/14 08:06:27;;;;;;;45.20;18.33;;;10.80;99.90;;;;;;4845599;29;20053;-82
2021/11/14 08:08:53;;;;;;;39.78;16.80;;;10.90;99.90;;;;;;4844668;29;20022;-83
2021/11/14 08:11:19;;;;;;;51.42;17.92;;;10.80;99.90;;;;;;4846069;29;20034;-81
2021/11/14 08:13:45;;;;;;;45.05;17.30;;;10.80;99.90;;;;;;4844611;29;20044;-83
2021/11/14 08:16:10;;;;;;;45.75;17.60;;;10.80;99.90;;;;;;4844804;29;20030;-83
2021/11/14 08:18:36;;;;;;;45.38;17.42;;;10.80;99.90;;;;;;4845374;29;20046;-82
2021/11/14 08:21:02;;;;;;;46.10;17.85;;;10.80;99.90;;;;;;4846127;29;20493;-82
2021/11/14 08:23:28;;;;;;;46.60;17.30;;;10.80;99.90;;;;;;4845063;29;20026;-82
2021/11/14 08:25:54;;;;;;;53.20;18.33;;;10.80;99.90;;;;;;4845901;29;20022;-82
2021/11/14 08:28:21;;;;;;;49.95;16.83;;;10.80;99.90;;;;;;4844781;29;20525;-81
2021/11/14 08:30:48;;;;;;;44.72;15.38;;;10.90;99.90;;;;;;4844252;29;20029;-82
2021/11/14 08:33:13;;;;;;;54.25;18.67;;;10.90;99.90;;;;;;4852311;29;20165;-83
2021/11/14 08:35:40;;;;;;;47.00;16.88;;;10.90;99.90;;;;;;4857001;29;20077;-84
2021/11/14 08:38:07;;;;;;;43.95;16.55;;;10.90;99.90;;;;;;4858167;29;20074;-82
2021/11/14 08:40:36;;;;;;;40.63;16.30;;;10.80;99.90;;;;;;4843141;29;20062;-82
2021/11/14 08:43:04;;;;;;;38.92;16.88;;;10.90;99.90;;;;;;4843738;29;20033;-83
2021/11/14 08:45:32;;;;;;;45.47;17.58;;;10.90;99.90;;;;;;4845095;29;20041;-82
2021/11/14 08:48:00;;;;;;;42.60;16.25;;;11.00;99.90;;;;;;4844339;29;20048;-83
2021/11/14 08:50:27;;;;;;;;;;;11.00;99.90;;;;;;4846345;29;20026;-83
2021/11/14 08:52:55;;;;;;;43.15;15.75;;;11.00;99.90;;;;;;4848520;29;19927;-83
2021/11/14 08:55:23;;;;;;;44.55;17.65;;;11.00;99.90;;;;;;4862332;29;20486;-82
2021/11/14 08:57:50;;;;;;;42.40;14.68;;;11.00;99.90;;;;;;4845622;29;20033;-82
2021/11/14 09:00:21;;;;;;;38.50;16.27;;;11.10;99.90;;;;;;4870007;29;20112;-82
2021/11/14 09:02:52;;;;;;;38.83;15.98;;;11.20;99.90;;;;;;4848398;29;20037;-85
2021/11/14 09:05:20;;;;;;;40.80;16.17;;;11.20;99.90;;;;;;4847897;29;20427;-79
2021/11/14 09:07:45;;;;;;;;;;;11.20;99.90;;;;;;4860422;29;20554;-78
2021/11/14 09:10:12;;;;;;;39.90;15.05;;;11.30;99.90;;;;;;4846849;29;19913;-80
2021/11/14 09:12:39;;;;;;;36.95;14.52;;;11.20;99.90;;;;;;4846095;29;20085;-80
2021/11/14 09:15:05;;;;;;;44.85;16.23;;;11.30;99.90;;;;;;4861138;29;20464;-82
2021/11/14 09:17:31;;;;;;;41.10;15.60;;;11.30;99.90;;;;;;4862333;29;20379;-80
2021/11/14 09:19:57;;;;;;;43.85;17.35;;;11.30;99.90;;;;;;4872533;29;20033;-82
2021/11/14 09:22:22;;;;;;;40.13;16.30;;;11.40;99.90;;;;;;4865563;29;20037;-82
2021/11/14 09:24:48;;;;;;;35.70;16.58;;;11.40;99.90;;;;;;4881350;29;20064;-83
2021/11/14 09:27:14;;;;;;;37.35;15.13;;;11.40;99.90;;;;;;4868261;29;20168;-82
2021/11/14 09:29:40;;;;;;;42.17;15.20;;;11.40;99.90;;;;;;4864947;29;20025;-82
2021/11/14 09:32:06;;;;;;;39.55;15.63;;;11.40;99.90;;;;;;4846961;29;20049;-83
2021/11/14 09:34:32;;;;;;;33.08;14.05;;;11.40;99.90;;;;;;4859146;29;20081;-83
2021/11/14 09:36:58;;;;;;;36.45;14.35;;;11.50;99.90;;;;;;4862326;29;20033;-82
2021/11/14 09:39:24;;;;;;;37.75;14.25;;;11.60;99.90;;;;;;4862029;29;20037;-83
2021/11/14 09:41:51;;;;;;;31.52;13.70;;;11.60;99.90;;;;;;4846255;29;20033;-81
2021/11/14 09:44:18;;;;;;;29.15;14.52;;;11.60;99.90;;;;;;4846033;29;20051;-83
2021/11/14 09:46:54;;;;;;;32.28;13.63;;;11.60;99.90;;;;;;4862755;29;20029;-82
2021/11/14 09:49:22;;;;;;;34.45;13.80;;;11.60;99.90;;;;;;4859205;29;20033;-83
2021/11/14 09:51:49;;;;;;;33.30;14.10;;;11.80;99.90;;;;;;4848621;29;20034;-82
2021/11/14 09:54:15;;;;;;;27.23;12.55;;;11.80;99.90;;;;;;4862679;29;20106;-81
2021/11/14 09:56:41;;;;;;;30.02;13.45;;;11.80;99.90;;;;;;4845215;29;20038;-82
2021/11/14 09:59:08;;;;;;;30.73;12.75;;;11.80;99.90;;;;;;4863717;29;20045;-83
2021/11/14 10:01:35;;;;;;;27.00;11.85;;;11.80;99.90;;;;;;4864303;29;20022;-82
2021/11/14 10:04:01;;;;;;;30.52;12.95;;;11.90;99.90;;;;;;4848271;29;20029;-82
2021/11/14 10:06:28;;;;;;;27.27;11.07;;;12.00;99.90;;;;;;4849006;29;20463;-84
2021/11/14 10:08:54;;;;;;;22.50;10.30;;;12.00;99.90;;;;;;4848836;29;20104;-82
2021/11/14 10:11:34;;;;;;;22.98;9.77;;;12.00;99.90;;;;;;4859856;29;20496;-81
2021/11/14 10:14:00;;;;;;;20.25;9.45;;;11.90;99.90;;;;;;4847456;29;20085;-80
2021/11/14 10:16:28;;;;;;;20.40;9.13;;;11.90;99.90;;;;;;4844055;29;20116;-82
2021/11/14 10:18:58;;;;;;;;;;;11.80;99.90;;;;;;4842346;29;20037;-81
2021/11/14 10:21:28;;;;;;;27.05;9.38;;;11.80;99.90;;;;;;4864953;29;20031;-80
2021/11/14 10:23:54;;;;;;;18.95;8.80;;;11.90;99.90;;;;;;4848537;29;20101;-80
2021/11/14 10:26:20;;;;;;;22.42;8.93;;;11.90;99.90;;;;;;4864814;29;20041;-81
2021/11/14 10:28:48;;;;;;;27.38;8.95;;;11.90;99.90;;;;;;4880919;29;20038;-81
2021/11/14 10:31:21;;;;;;;19.42;8.57;;;11.90;99.90;;;;;;4882804;29;20073;-81
2021/11/14 10:33:49;;;;;;;21.30;9.73;;;11.90;99.90;;;;;;4864718;29;20022;-79
2021/11/14 10:36:17;;;;;;;18.52;8.88;;;11.90;99.90;;;;;;4858871;29;20030;-81
2021/11/14 10:38:44;;;;;;;22.40;9.88;;;11.80;99.90;;;;;;4868733;29;20033;-79
2021/11/14 10:41:12;;;;;;;20.38;9.13;;;11.80;99.90;;;;;;4884748;29;20038;-78
2021/11/14 10:43:39;;;;;;;;;;;11.80;99.90;;;;;;4885386;29;20038;-79
2021/11/14 10:46:19;;;;;;;20.05;9.00;;;11.80;99.90;;;;;;4868479;29;19900;-80
2021/11/14 10:48:47;;;;;;;23.83;9.63;;;11.80;99.90;;;;;;4868089;29;20060;-80
2021/11/14 10:51:14;;;;;;;21.63;9.13;;;11.80;99.90;;;;;;4869820;29;20037;-80
2021/11/14 10:53:41;;;;;;;22.45;9.77;;;11.80;99.90;;;;;;4848802;29;20106;-82
2021/11/14 10:56:10;;;;;;;20.48;10.40;;;11.80;99.90;;;;;;4865251;29;20085;-83
2021/11/14 10:58:38;;;;;;;23.90;9.95;;;11.80;99.90;;;;;;4848693;29;20049;-80
2021/11/14 11:01:05;;;;;;;;;;;11.80;99.90;;;;;;4881300;29;20018;-81
2021/11/14 11:03:48;;;;;;;20.23;8.55;;;11.80;99.90;;;;;;4882162;29;19906;-83
2021/11/14 11:06:27;;;;;;;21.90;9.25;;;11.90;99.90;;;;;;4851285;29;20128;-84
2021/11/14 11:08:58;;;;;;;18.45;9.40;;;12.00;99.90;;;;;;4859763;29;20053;-81
2021/11/14 11:11:26;;;;;;;23.58;10.07;;;11.90;99.90;;;;;;4856618;29;20055;-81
2021/11/14 11:13:52;;;;;;;;;;;11.90;99.90;;;;;;4866359;29;20034;-82
2021/11/14 11:16:27;;;;;;;18.33;9.18;;;11.90;99.90;;;;;;4884482;29;19900;-84
2021/11/14 11:19:14;;;;;;;20.88;9.50;;;12.00;99.90;;;;;;4861748;29;20014;-81
2021/11/14 11:21:44;;;;;;;22.90;10.07;;;11.90;99.90;;;;;;4870523;29;20017;-80
2021/11/14 11:24:19;;;;;;;22.38;10.80;;;11.90;99.90;;;;;;4871358;29;20026;-83
2021/11/14 11:27:01;;;;;;;23.00;9.10;;;11.90;99.90;;;;;;4869806;29;20057;-80
2021/11/14 11:29:29;;;;;;;25.45;10.30;;;11.90;99.90;;;;;;4887769;29;20089;-79
2021/11/14 11:31:55;;;;;;;;;;;11.90;99.90;;;;;;4879544;29;21132;-79
2021/11/14 11:34:24;;;;;;;20.70;9.70;;;11.90;99.90;;;;;;4887019;29;19939;-75
2021/11/14 11:36:50;;;;;;;24.60;10.23;;;12.00;99.90;;;;;;4885957;29;20016;-83
2021/11/14 11:39:17;;;;;;;23.15;10.60;;;12.10;99.90;;;;;;4881455;29;20035;-80
2021/11/14 11:41:45;;;;;;;27.42;10.52;;;12.10;99.90;;;;;;4868863;29;20041;-83
2021/11/14 11:44:12;;;;;;;20.40;10.30;;;12.10;99.90;;;;;;4877212;29;20026;-79
2021/11/14 11:46:41;;;;;;;18.98;10.32;;;12.10;99.90;;;;;;4884578;29;20026;-78
2021/11/14 11:49:13;;;;;;;25.35;10.48;;;12.10;99.90;;;;;;4875084;29;20030;-80
2021/11/14 11:51:47;;;;;;;19.25;9.38;;;12.10;99.90;;;;;;4866778;29;20026;-79
2021/11/14 11:54:30;;;;;;;19.63;10.18;;;12.10;99.90;;;;;;4868616;29;20033;-80
2021/11/14 11:56:56;;;;;;;26.50;10.55;;;12.10;99.90;;;;;;4847840;29;20034;-81
2021/11/14 11:59:36;;;;;;;21.20;10.93;;;12.10;99.90;;;;;;4848029;29;20048;-81
2021/11/14 12:02:34;;;;;;;19.35;9.60;;;12.10;99.90;;;;;;4851317;29;20038;-81
2021/11/14 12:05:08;;;;;;;23.98;9.90;;;12.10;99.90;;;;;;4845452;29;20509;-81
2021/11/14 12:07:34;;;;;;;21.52;9.90;;;12.10;99.90;;;;;;4846336;29;20030;-80
2021/11/14 12:10:15;;;;;;;25.45;10.38;;;12.10;99.90;;;;;;4866580;29;20037;-82
2021/11/14 12:13:03;;;;;;;20.60;9.82;;;12.10;99.90;;;;;;4863710;29;20057;-80
2021/11/14 12:15:31;;;;;;;21.60;10.18;;;12.10;99.90;;;;;;4846591;29;20053;-82
2021/11/14 12:18:06;;;;;;;22.13;10.60;;;12.10;99.90;;;;;;4879087;29;20021;-79
2021/11/14 12:20:34;;;;;;;18.77;9.30;;;12.10;99.90;;;;;;4863861;29;20013;-80
2021/11/14 12:23:02;;;;;;;;;;;12.00;99.90;;;;;;4864109;29;20037;-77
2021/11/14 12:25:37;;;;;;;22.38;9.82;;;12.00;99.90;;;;;;4871475;29;19972;-80
2021/11/14 12:28:09;;;;;;;18.65;9.57;;;12.00;99.90;;;;;;4849210;29;20029;-79
2021/11/14 12:31:18;;;;;;;25.13;10.18;;;12.00;99.90;;;;;;4858940;29;20487;-78
2021/11/14 12:34:09;;;;;;;19.25;9.50;;;12.00;99.90;;;;;;4839877;29;20034;-79
2021/11/14 12:36:41;;;;;;;19.02;9.27;;;11.90;99.90;;;;;;4858005;29;20037;-80
2021/11/14 12:39:29;;;;;;;22.80;9.82;;;12.00;99.90;;;;;;4848209;29;20740;-79
2021/11/14 12:42:12;;;;;;;18.35;9.50;;;12.00;99.90;;;;;;4850534;29;20050;-80